Time;durP1;ratioP1;P1;durP2;ratioP2;P2;SDS_P1;SDS_P2;PMS_P1;PMS_P2;Temp;Humidity;BMP_temperature;BMP_pressure;BME280_temperature;BME280_humidity;BME280_pressure;Samples;Min_cycle;Max_cycle;Signal;HPM_P1;HPM_P2
2023/05/23 00:00:23;;;;;;;11.77;6.20;;;14.30;99.90;;;;;;5025668;28;20182;-59
2023/05/23 00:02:49;;;;;;;11.50;7.03;;;14.30;99.90;;;;;;5029842;28;20210;-59
2023/05/23 00:05:16;;;;;;;12.07;6.00;;;14.40;99.90;;;;;;5029231;28;20174;-59
2023/05/23 00:07:43;;;;;;;10.17;6.07;;;14.50;99.90;;;;;;5032161;28;20178;-59
2023/05/23 00:10:10;;;;;;;14.80;6.90;;;14.50;99.90;;;;;;5014388;28;20778;-59
2023/05/23 00:12:38;;;;;;;21.33;7.13;;;14.50;99.90;;;;;;5023697;28;20511;-59
2023/05/23 00:15:07;;;;;;;15.30;8.23;;;14.60;99.90;;;;;;5018814;28;20427;-59
2023/05/23 00:17:35;;;;;;;18.50;8.23;;;14.70;99.90;;;;;;5020704;28;20458;-59
2023/05/23 00:20:01;;;;;;;14.83;7.87;;;14.70;99.90;;;;;;5024872;28;20532;-59
2023/05/23 00:22:27;;;;;;;16.30;8.80;;;14.80;99.90;;;;;;5022163;28;20433;-59
2023/05/23 00:24:52;;;;;;;24.33;10.13;;;14.90;99.90;;;;;;5029928;28;20405;-59
2023/05/23 00:27:18;;;;;;;15.80;8.03;;;14.90;99.90;;;;;;5032036;28;20236;-59
2023/05/23 00:29:43;;;;;;;13.40;7.10;;;14.90;99.90;;;;;;5032059;28;20209;-59
2023/05/23 00:32:09;;;;;;;19.00;9.10;;;14.90;99.90;;;;;;5031343;28;20518;-59
2023/05/23 00:34:36;;;;;;;16.93;7.80;;;14.90;99.90;;;;;;5012651;28;20183;-59
2023/05/23 00:37:03;;;;;;;19.67;8.20;;;14.90;99.90;;;;;;5024159;28;20228;-59
2023/05/23 00:39:29;;;;;;;19.70;10.37;;;14.90;99.90;;;;;;5012820;28;20521;-59
2023/05/23 00:41:55;;;;;;;17.43;9.40;;;14.90;99.90;;;;;;5031216;28;20528;-59
2023/05/23 00:44:21;;;;;;;20.07;9.50;;;15.10;99.90;;;;;;5018494;28;20722;-59
2023/05/23 00:46:51;;;;;;;28.77;11.13;;;15.10;99.90;;;;;;5019102;28;20202;-59
2023/05/23 00:49:18;;;;;;;22.47;9.47;;;15.20;99.90;;;;;;5024932;28;20946;-59
2023/05/23 00:51:45;;;;;;;21.80;10.60;;;15.20;99.90;;;;;;5017341;28;20433;-59
2023/05/23 00:54:12;;;;;;;21.83;11.33;;;15.20;99.90;;;;;;5013679;28;20452;-59
2023/05/23 00:56:38;;;;;;;25.23;11.23;;;15.40;99.90;;;;;;5029302;28;20464;-59
2023/05/23 00:59:05;;;;;;;26.67;10.27;;;15.40;99.90;;;;;;5029285;28;20461;-59
2023/05/23 01:01:32;;;;;;;20.70;10.57;;;15.50;99.90;;;;;;5029869;28;20421;-59
2023/05/23 01:03:58;;;;;;;24.03;10.70;;;15.50;99.90;;;;;;5026904;28;20517;-59
2023/05/23 01:06:23;;;;;;;32.10;13.60;;;15.60;99.90;;;;;;5031141;28;20462;-59
2023/05/23 01:08:49;;;;;;;26.67;11.80;;;15.60;99.90;;;;;;5024440;28;20191;-59
2023/05/23 01:11:38;;;;;;;34.83;13.17;;;15.60;99.90;;;;;;5012143;28;20203;-59
2023/05/23 01:14:16;;;;;;;36.10;13.90;;;15.60;99.90;;;;;;5031370;28;20240;-59
2023/05/23 01:16:56;;;;;;;26.80;13.33;;;15.50;99.90;;;;;;5013428;28;20816;-59
2023/05/23 01:19:28;;;;;;;27.73;12.07;;;15.40;99.90;;;;;;5024381;28;20461;-59
2023/05/23 01:21:57;;;;;;;25.37;14.10;;;15.50;99.90;;;;;;5025769;28;21275;-59
2023/05/23 01:25:02;;;;;;;25.93;13.10;;;15.40;99.90;;;;;;5030903;28;20474;-59
2023/05/23 01:27:51;;;;;;;23.87;13.70;;;15.40;99.90;;;;;;5009428;28;20529;-59
2023/05/23 01:30:19;;;;;;;28.43;12.83;;;15.30;99.90;;;;;;5020783;28;20457;-59
2023/05/23 01:32:49;;;;;;;27.30;15.00;;;15.40;99.90;;;;;;5010571;28;20512;-59
2023/05/23 01:35:24;;;;;;;27.23;14.20;;;15.50;99.90;;;;;;5010916;28;20468;-59
2023/05/23 01:37:50;;;;;;;31.97;13.90;;;15.40;99.90;;;;;;5024065;28;20511;-59
2023/05/23 01:40:15;;;;;;;26.30;13.77;;;15.50;99.90;;;;;;5023368;28;20429;-59
2023/05/23 01:42:41;;;;;;;36.33;13.83;;;15.50;99.90;;;;;;5030292;28;20189;-59
2023/05/23 01:45:07;;;;;;;32.80;14.57;;;15.50;99.90;;;;;;5025727;28;20182;-59
2023/05/23 01:47:35;;;;;;;41.83;16.47;;;15.50;99.90;;;;;;5027471;28;20240;-59
2023/05/23 01:50:02;;;;;;;37.20;18.20;;;15.50;99.90;;;;;;5027850;28;20785;-59
2023/05/23 01:52:28;;;;;;;41.57;18.93;;;15.50;99.90;;;;;;5027039;28;20516;-59
2023/05/23 01:54:55;;;;;;;47.97;19.77;;;15.50;99.90;;;;;;5025364;28;20520;-59
2023/05/23 01:57:21;;;;;;;66.17;23.57;;;15.60;99.90;;;;;;5030962;28;20646;-59
2023/05/23 01:59:47;;;;;;;47.80;20.90;;;15.50;99.90;;;;;;5034261;28;20512;-58
2023/05/23 02:02:13;;;;;;;47.33;23.57;;;15.50;99.90;;;;;;5030034;28;20517;-59
2023/05/23 02:04:38;;;;;;;47.43;22.13;;;15.50;99.90;;;;;;5038187;28;20178;-59
2023/05/23 02:07:05;;;;;;;59.93;21.60;;;15.50;99.90;;;;;;5049822;28;20661;-59
2023/05/23 02:09:30;;;;;;;50.27;23.03;;;15.50;99.90;;;;;;5050497;28;20536;-59
2023/05/23 02:11:56;;;;;;;50.20;20.97;;;15.50;99.90;;;;;;5051426;28;20416;-59
2023/05/23 02:14:22;;;;;;;63.57;23.57;;;15.40;99.90;;;;;;5054436;28;20192;-59
2023/05/23 02:16:48;;;;;;;61.23;24.93;;;15.40;99.90;;;;;;5048497;28;20201;-59
2023/05/23 02:19:14;;;;;;;54.93;25.40;;;15.50;99.90;;;;;;5033884;28;21081;-59
2023/05/23 02:21:39;;;;;;;55.20;24.47;;;15.60;99.90;;;;;;5039380;28;20193;-59
2023/05/23 02:24:05;;;;;;;55.67;23.57;;;15.50;99.90;;;;;;5051816;28;20178;-59
2023/05/23 02:26:31;;;;;;;51.63;23.10;;;15.50;99.90;;;;;;5054370;28;20189;-59
2023/05/23 02:28:56;;;;;;;43.70;22.93;;;15.60;99.90;;;;;;5054127;28;20680;-59
2023/05/23 02:31:22;;;;;;;57.27;25.20;;;15.60;99.90;;;;;;5053972;28;20197;-59
2023/05/23 02:33:48;;;;;;;58.27;25.87;;;15.50;99.90;;;;;;5053938;28;20189;-59
2023/05/23 02:36:13;;;;;;;47.57;23.03;;;15.50;99.90;;;;;;5048628;28;20630;-59
2023/05/23 02:38:39;;;;;;;66.33;25.23;;;15.50;99.90;;;;;;5045156;28;20216;-59
2023/05/23 02:41:04;;;;;;;63.73;25.87;;;15.50;99.90;;;;;;5045830;28;20247;-59
2023/05/23 02:43:30;;;;;;;57.87;25.10;;;15.50;99.90;;;;;;5053691;28;20186;-59
2023/05/23 02:45:56;;;;;;;70.83;26.00;;;15.50;99.90;;;;;;5053907;28;20227;-59
2023/05/23 02:48:21;;;;;;;52.43;26.10;;;15.60;99.90;;;;;;5042752;28;20713;-59
2023/05/23 02:50:47;;;;;;;54.50;25.30;;;15.60;99.90;;;;;;5033560;28;20194;-59
2023/05/23 02:53:12;;;;;;;62.33;25.70;;;15.60;99.90;;;;;;5036997;28;20480;-59
2023/05/23 02:55:38;;;;;;;53.77;24.53;;;15.70;99.90;;;;;;5051382;28;20189;-59
2023/05/23 02:58:04;;;;;;;43.23;22.00;;;15.70;99.90;;;;;;5053926;28;20247;-59
2023/05/23 03:00:31;;;;;;;73.97;27.23;;;15.70;99.90;;;;;;5053275;28;20178;-59
2023/05/23 03:02:57;;;;;;;57.37;23.63;;;15.70;99.90;;;;;;5038909;28;20413;-59
2023/05/23 03:05:22;;;;;;;63.37;25.33;;;15.70;99.90;;;;;;5036648;28;20430;-59
2023/05/23 03:07:48;;;;;;;60.60;24.63;;;15.70;99.90;;;;;;5053321;28;20220;-59
2023/05/23 03:10:13;;;;;;;63.40;26.60;;;15.70;99.90;;;;;;5050929;28;20245;-59
2023/05/23 03:12:39;;;;;;;48.23;22.53;;;15.70;99.90;;;;;;5052839;28;20185;-59
2023/05/23 03:15:05;;;;;;;60.63;25.77;;;15.80;99.90;;;;;;5053111;28;20186;-59
2023/05/23 03:17:31;;;;;;;58.97;28.07;;;15.80;99.90;;;;;;5053232;28;20247;-59
2023/05/23 03:19:56;;;;;;;59.87;24.50;;;15.70;99.90;;;;;;5038940;28;20459;-59
2023/05/23 03:22:22;;;;;;;49.47;24.73;;;15.60;99.90;;;;;;5044163;28;20543;-59
2023/05/23 03:24:48;;;;;;;49.83;24.03;;;15.70;99.90;;;;;;5041323;28;20191;-59
2023/05/23 03:27:13;;;;;;;55.53;23.97;;;15.60;99.90;;;;;;5036419;28;20320;-59
2023/05/23 03:29:39;;;;;;;71.83;28.37;;;15.60;99.90;;;;;;5052952;28;20699;-59
2023/05/23 03:32:05;;;;;;;60.60;25.07;;;15.60;99.90;;;;;;5052229;28;20182;-59
2023/05/23 03:34:32;;;;;;;50.77;24.47;;;15.60;99.90;;;;;;5052226;28;20548;-59
2023/05/23 03:36:58;;;;;;;59.90;24.63;;;15.70;99.90;;;;;;5041401;28;20421;-59
2023/05/23 03:39:24;;;;;;;61.83;26.50;;;15.70;99.90;;;;;;5051064;28;21004;-59
2023/05/23 03:41:50;;;;;;;48.33;23.50;;;15.70;99.90;;;;;;5034057;28;20516;-59
2023/05/23 03:44:15;;;;;;;55.53;26.43;;;15.60;99.90;;;;;;5046369;28;20178;-59
2023/05/23 03:46:41;;;;;;;65.17;25.93;;;15.70;99.90;;;;;;5044444;28;20197;-59
2023/05/23 03:49:07;;;;;;;50.50;23.93;;;15.70;99.90;;;;;;5052217;28;20224;-59
2023/05/23 03:51:33;;;;;;;51.40;24.67;;;15.70;99.90;;;;;;5052377;28;20727;-59
2023/05/23 03:53:58;;;;;;;50.10;23.80;;;15.70;99.90;;;;;;5043171;28;20194;-59
2023/05/23 03:56:25;;;;;;;65.37;25.00;;;15.70;99.90;;;;;;5052557;28;20416;-59
2023/05/23 03:58:50;;;;;;;79.73;24.40;;;15.70;99.90;;;;;;5052440;28;20568;-59
2023/05/23 04:01:16;;;;;;;55.17;23.73;;;15.70;99.90;;;;;;5051934;28;20420;-59
2023/05/23 04:03:41;;;;;;;52.53;25.40;;;15.70;99.90;;;;;;5036347;28;20572;-59
2023/05/23 04:06:07;;;;;;;60.83;24.70;;;15.80;99.90;;;;;;5045083;28;20182;-59
2023/05/23 04:08:33;;;;;;;51.97;23.57;;;15.80;99.90;;;;;;5038468;28;20293;-59
2023/05/23 04:11:01;;;;;;;40.67;22.27;;;15.80;99.90;;;;;;5040064;28;20218;-59
2023/05/23 04:13:27;;;;;;;58.97;22.83;;;15.80;99.90;;;;;;5049129;28;20189;-59
2023/05/23 04:15:56;;;;;;;48.60;22.43;;;15.70;99.90;;;;;;5039449;28;20429;-59
2023/05/23 04:18:22;;;;;;;43.90;20.77;;;15.70;99.90;;;;;;5044511;28;20500;-59
2023/05/23 04:20:48;;;;;;;38.70;21.47;;;15.80;99.90;;;;;;5037043;28;20422;-59
2023/05/23 04:23:14;;;;;;;48.87;24.23;;;15.70;99.90;;;;;;5047814;28;20547;-59
2023/05/23 04:25:39;;;;;;;49.40;21.73;;;15.70;99.90;;;;;;5051997;28;20515;-59
2023/05/23 04:28:05;;;;;;;50.37;20.40;;;15.70;99.90;;;;;;5052038;28;20255;-59
2023/05/23 04:30:32;;;;;;;43.83;22.17;;;15.60;99.90;;;;;;5051888;28;20630;-59
2023/05/23 04:32:59;;;;;;;51.37;23.47;;;15.60;99.90;;;;;;5051181;28;20205;-59
2023/05/23 04:35:27;;;;;;;49.40;23.13;;;15.60;99.90;;;;;;5050147;28;20465;-59
2023/05/23 04:37:55;;;;;;;49.97;23.90;;;15.60;99.90;;;;;;5045170;28;20559;-59
2023/05/23 04:40:23;;;;;;;50.47;23.00;;;15.60;99.90;;;;;;5037986;28;20778;-59
2023/05/23 04:42:50;;;;;;;45.80;23.63;;;15.50;99.90;;;;;;5024832;28;20420;-59
2023/05/23 04:45:18;;;;;;;51.63;24.10;;;15.50;99.90;;;;;;5051315;28;20451;-59
2023/05/23 04:47:45;;;;;;;49.23;21.13;;;15.60;99.90;;;;;;5051314;28;20456;-59
2023/05/23 04:50:11;;;;;;;50.67;23.67;;;15.50;99.90;;;;;;5050845;28;20928;-59
2023/05/23 04:52:36;;;;;;;59.23;25.00;;;15.50;99.90;;;;;;5043156;28;20433;-59
2023/05/23 04:55:03;;;;;;;52.80;21.90;;;15.50;99.90;;;;;;5045098;28;20194;-59
2023/05/23 04:57:28;;;;;;;47.97;24.23;;;15.50;99.90;;;;;;5051286;28;20733;-59
2023/05/23 04:59:54;;;;;;;38.90;20.23;;;15.50;99.90;;;;;;5050882;28;20542;-59
2023/05/23 05:02:19;;;;;;;47.60;23.57;;;15.60;99.90;;;;;;5041705;28;20193;-59
2023/05/23 05:04:46;;;;;;;40.87;22.37;;;15.60;99.90;;;;;;5038652;28;20174;-59
2023/05/23 05:07:11;;;;;;;51.60;23.37;;;15.50;99.90;;;;;;5038183;28;20459;-59
2023/05/23 05:09:37;;;;;;;48.53;23.07;;;15.50;99.90;;;;;;5050137;28;20439;-59
2023/05/23 05:12:03;;;;;;;59.87;24.03;;;15.50;99.90;;;;;;5037867;28;20185;-59
2023/05/23 05:14:28;;;;;;;57.33;27.10;;;15.40;99.90;;;;;;5037252;28;20221;-59
2023/05/23 05:16:56;;;;;;;45.87;25.23;;;15.40;99.90;;;;;;5044076;28;20277;-58
2023/05/23 05:19:22;;;;;;;51.60;26.67;;;15.40;99.90;;;;;;5030741;28;20214;-59
2023/05/23 05:21:48;;;;;;;59.60;26.73;;;15.40;99.90;;;;;;5050247;28;21093;-59
2023/05/23 05:24:14;;;;;;;50.77;26.97;;;15.40;99.90;;;;;;5048028;28;20432;-58
2023/05/23 05:26:40;;;;;;;55.07;26.50;;;15.40;99.90;;;;;;5050919;28;20777;-58
2023/05/23 05:29:05;;;;;;;57.97;26.60;;;15.40;99.90;;;;;;5050515;28;20513;-58
2023/05/23 05:31:31;;;;;;;48.87;26.10;;;15.50;99.90;;;;;;5050360;28;20210;-59
2023/05/23 05:33:57;;;;;;;55.17;24.97;;;15.50;99.90;;;;;;5050175;28;20244;-59
2023/05/23 05:36:22;;;;;;;50.37;26.13;;;15.50;99.90;;;;;;5038934;28;20182;-59
2023/05/23 05:38:48;;;;;;;59.00;27.83;;;15.50;99.90;;;;;;5016995;28;20203;-59
2023/05/23 05:41:14;;;;;;;48.97;24.87;;;15.50;99.90;;;;;;5040691;28;20213;-59
2023/05/23 05:43:39;;;;;;;51.13;26.63;;;15.50;99.90;;;;;;5037651;28;20186;-59
2023/05/23 05:46:05;;;;;;;52.97;27.20;;;15.40;99.90;;;;;;5048385;28;20178;-59
2023/05/23 05:48:32;;;;;;;57.47;24.50;;;15.50;99.90;;;;;;5049236;28;20279;-58
2023/05/23 05:50:59;;;;;;;44.00;24.07;;;15.40;99.90;;;;;;5029369;28;20457;-59
2023/05/23 05:53:25;;;;;;;51.40;25.20;;;15.40;99.90;;;;;;5032004;28;20192;-58
2023/05/23 05:55:53;;;;;;;49.33;26.63;;;15.50;99.90;;;;;;5034954;28;20789;-59
2023/05/23 05:58:19;;;;;;;44.43;24.07;;;15.50;99.90;;;;;;5048818;28;20214;-59
2023/05/23 06:00:45;;;;;;;54.70;26.90;;;15.50;99.90;;;;;;5049122;28;20915;-59
2023/05/23 06:03:11;;;;;;;50.70;25.90;;;15.60;99.90;;;;;;5032713;28;20189;-59
2023/05/23 06:05:38;;;;;;;54.53;25.20;;;15.50;99.90;;;;;;5040725;28;20424;-59
2023/05/23 06:08:04;;;;;;;62.20;26.00;;;15.50;99.90;;;;;;5036035;28;20269;-59
2023/05/23 06:10:30;;;;;;;49.23;23.73;;;15.60;99.90;;;;;;5034546;28;20423;-59
2023/05/23 06:12:57;;;;;;;52.10;24.30;;;15.70;99.90;;;;;;5047792;28;20432;-59
2023/05/23 06:15:23;;;;;;;41.40;22.87;;;15.70;99.90;;;;;;5048359;28;20212;-59
2023/05/23 06:17:48;;;;;;;41.97;23.00;;;15.80;99.90;;;;;;5047878;28;20898;-58
2023/05/23 06:20:14;;;;;;;46.87;22.60;;;15.80;99.90;;;;;;5033663;28;20174;-59
2023/05/23 06:22:40;;;;;;;47.73;24.07;;;15.80;99.90;;;;;;5039894;28;20186;-58
2023/05/23 06:25:06;;;;;;;58.33;25.00;;;15.80;99.90;;;;;;5048353;28;20527;-58
2023/05/23 06:27:32;;;;;;;49.70;23.20;;;15.70;99.90;;;;;;5034898;28;20359;-59
2023/05/23 06:29:57;;;;;;;48.80;23.67;;;15.70;99.90;;;;;;5048590;28;20924;-58
2023/05/23 06:32:23;;;;;;;47.53;23.20;;;15.70;99.90;;;;;;5037239;28;20182;-58
2023/05/23 06:34:48;;;;;;;53.83;23.80;;;15.70;99.90;;;;;;5035501;28;20606;-59
2023/05/23 06:37:14;;;;;;;51.43;22.90;;;15.80;99.90;;;;;;5040090;28;20192;-58
2023/05/23 06:39:40;;;;;;;41.33;21.87;;;15.80;99.90;;;;;;5047198;28;20517;-58
2023/05/23 06:42:06;;;;;;;42.87;22.07;;;15.90;99.90;;;;;;5041693;28;20205;-59
2023/05/23 06:44:31;;;;;;;43.60;21.40;;;15.90;99.90;;;;;;5041880;28;20585;-58
2023/05/23 06:46:57;;;;;;;42.30;22.23;;;15.80;99.90;;;;;;5040780;28;20280;-59
2023/05/23 06:49:23;;;;;;;39.57;20.83;;;15.90;99.90;;;;;;5021512;28;20213;-59
2023/05/23 06:51:49;;;;;;;45.90;21.13;;;15.90;99.90;;;;;;5021854;28;20424;-59
2023/05/23 06:54:15;;;;;;;39.27;18.40;;;16.00;99.90;;;;;;5040343;28;20732;-60
2023/05/23 06:56:41;;;;;;;47.20;20.90;;;15.90;99.90;;;;;;5049408;28;20806;-60
2023/05/23 06:59:06;;;;;;;47.10;21.83;;;15.90;99.90;;;;;;5039963;28;20213;-61
2023/05/23 07:01:32;;;;;;;33.03;19.57;;;16.10;99.90;;;;;;5050676;28;20178;-60
2023/05/23 07:03:58;;;;;;;40.47;19.97;;;16.00;99.90;;;;;;5039481;28;20727;-61
2023/05/23 07:06:23;;;;;;;35.80;20.83;;;16.00;99.90;;;;;;5047233;28;20185;-61
2023/05/23 07:08:49;;;;;;;36.80;18.80;;;16.20;99.90;;;;;;5052887;28;20671;-60
2023/05/23 07:11:15;;;;;;;38.87;20.13;;;16.10;99.90;;;;;;5039008;28;20183;-60
2023/05/23 07:13:40;;;;;;;30.03;18.00;;;16.00;99.90;;;;;;5038658;28;20220;-60
2023/05/23 07:16:06;;;;;;;37.73;18.23;;;15.90;99.90;;;;;;5053371;28;20223;-60
2023/05/23 07:18:31;;;;;;;32.30;17.00;;;15.90;99.90;;;;;;5046057;28;20194;-60
2023/05/23 07:20:57;;;;;;;44.20;19.90;;;15.80;99.90;;;;;;5038451;28;20258;-60
2023/05/23 07:23:23;;;;;;;31.37;19.90;;;15.80;99.90;;;;;;5049629;28;20205;-60
2023/05/23 07:25:48;;;;;;;35.13;17.33;;;15.80;99.90;;;;;;5053123;28;20208;-60
2023/05/23 07:28:14;;;;;;;31.33;18.20;;;15.70;99.90;;;;;;5052957;28;20523;-60
2023/05/23 07:30:41;;;;;;;36.20;17.70;;;15.40;99.90;;;;;;5040604;28;20216;-60
2023/05/23 07:33:06;;;;;;;33.10;18.33;;;15.40;99.90;;;;;;5052198;28;20539;-59
2023/05/23 07:35:32;;;;;;;37.10;18.97;;;15.20;99.90;;;;;;5041150;28;20430;-59
2023/05/23 07:37:57;;;;;;;42.43;20.77;;;15.20;99.90;;;;;;5033407;28;20197;-59
2023/05/23 07:40:23;;;;;;;41.63;17.80;;;15.30;99.90;;;;;;5043177;28;20202;-58
2023/05/23 07:42:49;;;;;;;36.13;17.63;;;15.30;99.90;;;;;;5050738;28;20181;-59
2023/05/23 07:45:15;;;;;;;38.23;17.90;;;15.30;99.90;;;;;;5040237;28;20185;-58
2023/05/23 07:47:41;;;;;;;37.07;18.70;;;15.30;99.90;;;;;;5051730;28;20657;-59
2023/05/23 07:50:08;;;;;;;30.20;15.97;;;15.00;99.90;;;;;;5048280;28;20193;-58
2023/05/23 07:52:34;;;;;;;30.47;17.30;;;15.10;99.90;;;;;;5029698;28;20413;-58
2023/05/23 07:54:59;;;;;;;31.10;16.80;;;15.10;99.90;;;;;;5020906;28;20465;-59
2023/05/23 07:57:25;;;;;;;34.27;17.17;;;15.10;99.90;;;;;;5026272;28;20939;-59
2023/05/23 07:59:52;;;;;;;29.13;16.43;;;15.20;99.90;;;;;;5026737;28;20189;-59
2023/05/23 08:02:18;;;;;;;29.73;17.70;;;15.30;99.90;;;;;;5027709;28;20491;-59
2023/05/23 08:04:44;;;;;;;32.70;16.87;;;15.30;99.90;;;;;;5022074;28;20441;-59
2023/05/23 08:07:10;;;;;;;29.07;15.10;;;15.30;99.90;;;;;;5020714;28;20470;-58
2023/05/23 08:09:37;;;;;;;25.50;14.77;;;15.20;99.90;;;;;;5028572;28;20996;-58
2023/05/23 08:12:02;;;;;;;27.97;17.13;;;15.30;99.90;;;;;;5022548;28;20307;-58
2023/05/23 08:14:28;;;;;;;26.53;14.97;;;15.60;99.90;;;;;;5025263;28;20862;-59
2023/05/23 08:16:54;;;;;;;34.47;16.90;;;15.80;99.90;;;;;;5020795;28;20183;-59
2023/05/23 08:19:19;;;;;;;26.63;14.53;;;15.70;99.90;;;;;;5027592;28;20650;-59
2023/05/23 08:21:45;;;;;;;30.70;14.77;;;16.00;99.90;;;;;;5022481;28;20197;-59
2023/05/23 08:24:11;;;;;;;36.93;14.40;;;15.80;99.90;;;;;;5022458;28;20183;-59
2023/05/23 08:26:40;;;;;;;25.83;14.23;;;15.90;99.90;;;;;;5026667;28;20428;-59
2023/05/23 08:29:08;;;;;;;36.57;15.27;;;15.50;99.90;;;;;;5024023;28;20269;-59
2023/05/23 08:31:34;;;;;;;36.90;16.10;;;15.60;99.90;;;;;;5020834;28;20808;-58
2023/05/23 08:34:00;;;;;;;35.50;13.10;;;15.60;99.90;;;;;;5021372;28;20445;-59
2023/05/23 08:36:26;;;;;;;25.83;13.10;;;15.40;99.90;;;;;;5024269;28;20255;-58
2023/05/23 08:38:52;;;;;;;24.40;13.70;;;15.60;99.90;;;;;;5015950;28;20893;-59
2023/05/23 08:41:22;;;;;;;30.50;13.17;;;15.60;99.90;;;;;;5018674;28;20194;-58
2023/05/23 08:43:48;;;;;;;26.57;10.50;;;15.40;99.90;;;;;;5020608;28;20256;-58
2023/05/23 08:46:14;;;;;;;25.70;14.97;;;15.40;99.90;;;;;;5019986;28;20527;-59
2023/05/23 08:48:42;;;;;;;36.37;13.33;;;15.30;99.90;;;;;;5024203;28;20452;-58
2023/05/23 08:51:13;;;;;;;17.97;11.47;;;15.40;99.90;;;;;;5024882;28;20417;-59
2023/05/23 08:53:45;;;;;;;22.33;12.30;;;15.40;99.90;;;;;;5021310;28;20433;-59
2023/05/23 08:56:11;;;;;;;22.57;12.67;;;15.40;99.90;;;;;;5021707;28;21017;-59
2023/05/23 08:58:42;;;;;;;26.93;13.97;;;15.40;99.90;;;;;;5017713;28;20465;-59
2023/05/23 09:01:09;;;;;;;21.87;12.33;;;15.50;99.90;;;;;;5023446;28;20187;-58
2023/05/23 09:03:38;;;;;;;26.23;12.60;;;15.40;99.90;;;;;;5026654;28;20441;-59
2023/05/23 09:06:08;;;;;;;20.93;11.03;;;15.40;99.90;;;;;;5027698;28;20429;-59
2023/05/23 09:08:33;;;;;;;25.40;11.87;;;15.60;99.90;;;;;;5029182;28;20479;-59
2023/05/23 09:11:01;;;;;;;20.47;10.13;;;15.90;99.90;;;;;;5026812;28;20441;-59
2023/05/23 09:13:32;;;;;;;23.47;10.77;;;16.00;99.90;;;;;;5017824;28;20635;-59
2023/05/23 09:16:06;;;;;;;17.73;9.77;;;16.10;99.90;;;;;;5024330;28;20804;-59
2023/05/23 09:18:38;;;;;;;23.50;12.73;;;15.90;99.90;;;;;;5020110;28;20469;-59
2023/05/23 09:21:05;;;;;;;19.70;10.03;;;15.90;99.90;;;;;;5025465;28;20436;-59
2023/05/23 09:23:31;;;;;;;21.40;9.80;;;16.20;99.90;;;;;;5029980;28;20524;-59
2023/05/23 09:26:01;;;;;;;21.50;9.53;;;16.60;99.90;;;;;;5028148;28;20437;-59
2023/05/23 09:28:27;;;;;;;19.00;11.67;;;17.00;99.90;;;;;;5022145;28;20516;-59
2023/05/23 09:31:05;;;;;;;20.47;9.47;;;16.90;99.90;;;;;;5027636;28;20985;-59
2023/05/23 09:33:49;;;;;;;17.70;9.00;;;16.60;99.90;;;;;;5022971;28;20186;-59
2023/05/23 09:36:17;;;;;;;17.57;9.80;;;16.80;99.90;;;;;;5024961;28;20426;-59
2023/05/23 09:38:45;;;;;;;22.90;9.70;;;16.50;99.90;;;;;;5018020;28;20460;-59
2023/05/23 09:41:12;;;;;;;30.37;10.50;;;16.50;99.90;;;;;;5026900;28;20806;-59
2023/05/23 09:43:53;;;;;;;17.40;9.57;;;16.10;99.90;;;;;;5026531;28;20461;-59
2023/05/23 09:46:20;;;;;;;21.33;9.23;;;16.10;99.90;;;;;;5027679;28;20913;-59
2023/05/23 09:48:50;;;;;;;16.40;10.10;;;15.90;99.90;;;;;;5028124;28;20463;-59
2023/05/23 09:51:22;;;;;;;15.00;9.20;;;16.20;99.90;;;;;;5028020;28;20507;-59
2023/05/23 09:53:49;;;;;;;10.60;7.43;;;16.40;99.90;;;;;;5024316;28;20770;-59
2023/05/23 09:56:18;;;;;;;19.30;8.83;;;16.60;99.90;;;;;;5027272;28;20426;-59
2023/05/23 09:58:48;;;;;;;18.30;9.07;;;16.40;99.90;;;;;;5025316;28;20552;-59
2023/05/23 10:01:14;;;;;;;14.70;8.50;;;16.50;99.90;;;;;;5021094;28;20429;-59
2023/05/23 10:03:47;;;;;;;15.43;8.77;;;16.80;99.90;;;;;;5022347;28;20508;-59
2023/05/23 10:06:24;;;;;;;17.20;8.50;;;16.90;99.90;;;;;;5026383;28;20425;-59
2023/05/23 10:09:04;;;;;;;11.97;6.77;;;16.80;99.90;;;;;;5021700;28;20448;-59
2023/05/23 10:11:32;;;;;;;14.97;7.60;;;16.50;99.90;;;;;;5020426;28;20440;-59
2023/05/23 10:14:07;;;;;;;16.57;8.40;;;16.40;99.90;;;;;;5022490;28;20432;-59
2023/05/23 10:16:46;;;;;;;15.20;8.93;;;16.70;99.90;;;;;;5025343;28;20444;-59
2023/05/23 10:19:26;;;;;;;13.07;7.10;;;16.40;99.90;;;;;;5023599;28;21035;-59
2023/05/23 10:21:58;;;;;;;13.00;7.70;;;16.50;99.90;;;;;;5024247;28;20435;-59
2023/05/23 10:24:25;;;;;;;14.93;7.50;;;16.30;99.90;;;;;;5028068;28;20409;-59
2023/05/23 10:26:52;;;;;;;12.50;7.17;;;16.20;99.90;;;;;;5019271;28;20429;-59
2023/05/23 10:29:17;;;;;;;12.10;7.07;;;16.00;99.90;;;;;;5025809;28;20808;-59
2023/05/23 10:31:44;;;;;;;22.80;8.23;;;16.10;99.90;;;;;;5029345;28;20433;-59
2023/05/23 10:34:30;;;;;;;14.00;9.00;;;16.00;99.90;;;;;;5032263;28;20573;-59
2023/05/23 10:37:03;;;;;;;17.57;8.80;;;16.30;99.90;;;;;;5033950;28;20865;-59
2023/05/23 10:40:16;;;;;;;14.53;7.50;;;16.50;99.90;;;;;;5031435;28;20477;-59
2023/05/23 10:42:59;;;;;;;11.73;6.70;;;16.90;99.90;;;;;;4978502;28;20478;-59
2023/05/23 10:45:24;;;;;;;9.60;6.50;;;17.70;99.90;;;;;;5029035;28;20421;-59
2023/05/23 10:47:52;;;;;;;14.50;6.77;;;17.50;99.90;;;;;;5033099;28;20448;-59
2023/05/23 10:50:33;;;;;;;15.77;7.03;;;17.60;99.90;;;;;;5031592;28;20186;-59
2023/05/23 10:53:01;;;;;;;22.37;8.97;;;18.00;99.90;;;;;;5031556;28;20464;-59
2023/05/23 10:55:31;;;;;;;12.87;7.17;;;17.70;99.90;;;;;;5021411;28;20525;-59
2023/05/23 10:58:21;;;;;;;12.93;7.27;;;18.20;99.90;;;;;;5029126;28;20511;-60
2023/05/23 11:00:52;;;;;;;15.83;7.40;;;17.90;99.90;;;;;;5023938;28;20960;-59
2023/05/23 11:03:17;;;;;;;11.27;6.10;;;17.90;99.90;;;;;;5027361;28;20451;-59
2023/05/23 11:05:52;;;;;;;12.37;5.40;;;18.00;99.90;;;;;;5031313;28;20516;-59
2023/05/23 11:08:19;;;;;;;14.20;6.67;;;18.00;99.90;;;;;;5025453;28;20191;-59
2023/05/23 11:11:02;;;;;;;11.20;6.20;;;18.20;99.90;;;;;;5030310;28;20417;-59
2023/05/23 11:13:58;;;;;;;10.20;5.33;;;18.10;99.90;;;;;;5021016;28;20441;-60
2023/05/23 11:16:38;;;;;;;11.57;6.20;;;18.20;99.90;;;;;;5029928;28;20433;-59
2023/05/23 11:19:27;;;;;;;12.97;5.77;;;18.10;99.90;;;;;;5025656;28;20566;-59
2023/05/23 11:21:59;;;;;;;9.10;5.17;;;18.00;99.90;;;;;;5036176;28;20405;-59
2023/05/23 11:24:51;;;;;;;18.30;6.00;;;18.00;99.90;;;;;;5030302;28;20456;-59
2023/05/23 11:27:38;;;;;;;10.50;5.90;;;18.00;99.90;;;;;;5030796;28;20932;-59
2023/05/23 11:30:06;;;;;;;14.87;6.37;;;17.70;99.90;;;;;;5027331;28;20927;-59
2023/05/23 11:32:32;;;;;;;11.33;6.53;;;17.90;99.90;;;;;;5031397;28;20461;-60
2023/05/23 11:35:02;;;;;;;9.97;6.37;;;18.20;99.90;;;;;;5026326;28;20448;-59
2023/05/23 11:37:29;;;;;;;14.73;6.73;;;18.40;99.90;;;;;;5028517;28;20272;-60
2023/05/23 11:39:55;;;;;;;8.83;5.27;;;18.50;99.90;;;;;;5026805;28;20479;-59
2023/05/23 11:42:22;;;;;;;12.40;6.17;;;18.90;99.90;;;;;;5022761;28;20422;-59
2023/05/23 11:44:49;;;;;;;10.00;5.17;;;19.00;99.90;;;;;;5029361;28;20571;-59
2023/05/23 11:47:16;;;;;;;9.77;5.70;;;18.60;99.90;;;;;;5024594;28;20455;-59
2023/05/23 11:49:45;;;;;;;11.20;6.00;;;19.10;99.90;;;;;;5027467;28;20433;-59
2023/05/23 11:52:11;;;;;;;9.53;6.30;;;18.80;99.90;;;;;;5024283;28;20463;-59
2023/05/23 11:54:38;;;;;;;10.27;5.90;;;18.20;99.90;;;;;;5030404;28;20996;-60
2023/05/23 11:57:04;;;;;;;8.20;5.17;;;18.00;99.90;;;;;;5030545;28;20956;-59
2023/05/23 11:59:30;;;;;;;16.30;5.90;;;17.80;99.90;;;;;;5028913;28;20464;-59
2023/05/23 12:01:56;;;;;;;9.83;5.43;;;17.70;99.90;;;;;;5029363;28;20174;-59
2023/05/23 12:04:21;;;;;;;9.27;5.70;;;18.00;99.90;;;;;;5029195;28;20541;-60
2023/05/23 12:06:48;;;;;;;9.63;5.17;;;18.30;99.90;;;;;;5030369;28;20257;-60
2023/05/23 12:09:14;;;;;;;9.03;5.20;;;18.50;99.90;;;;;;5027006;28;20189;-59
2023/05/23 12:11:41;;;;;;;9.70;4.63;;;18.60;99.30;;;;;;5028780;28;20472;-59
2023/05/23 12:14:07;;;;;;;11.63;5.57;;;18.50;99.60;;;;;;5025491;28;20805;-59
2023/05/23 12:16:34;;;;;;;7.47;3.97;;;19.20;99.90;;;;;;5027943;28;20436;-59
2023/05/23 12:19:02;;;;;;;9.57;4.33;;;18.70;99.30;;;;;;5019246;28;20468;-59
2023/05/23 12:22:05;;;;;;;10.77;5.10;;;18.90;99.70;;;;;;5027427;28;20441;-59
2023/05/23 12:24:30;;;;;;;7.47;4.30;;;19.20;99.30;;;;;;4993635;28;20429;-59
2023/05/23 12:27:01;;;;;;;6.73;3.70;;;19.10;99.90;;;;;;5025669;28;20444;-59
2023/05/23 12:29:34;;;;;;;10.87;3.60;;;18.50;99.90;;;;;;5023999;28;20541;-59
2023/05/23 12:32:01;;;;;;;5.87;3.87;;;18.90;99.30;;;;;;5010841;28;20987;-59
2023/05/23 12:34:27;;;;;;;8.40;4.93;;;19.00;99.30;;;;;;5012124;28;20536;-59